Terminal Aerodrome Forecast
Issued by NWS San Angelo, TX

Home | Current Version | Previous Version | Text Only | Print | Product List | Glossary On
Versions: 1 2 3 4 5 6 7 8 9 10 11 12 13 14 15 16 17 18 19 20 21
905
FTUS44 KSJT 030523
TAFSJT
TAF
KSJT 030523Z 0306/0406 08008KT 6SM -DZ BR OVC015
     FM030900 06010KT 3SM -DZ BR OVC008
     FM031200 05009KT 2SM -RA BR OVC004
     FM031800 04008KT 5SM -DZ BR OVC015=

USA.gov is the U.S. government's official web portal to all federal, state and local government web resources and services.